This is the latest recevied weather packets stored in our database for station/object AC2VK-1. If no packets are shown the sender has not sent any weather packets the latest 10 day(s).
| Time | Temp. | Humidity | Pressure | Rain* | Wind** | Luminosity | Snow |
|---|---|---|---|---|---|---|---|
| 1777301980 | 21.67° C | 70% | 1020.8 hPa | 0 mm | - | - | - |
| 1777301380 | 21.11° C | 73% | 1020.8 hPa | 0 mm | - | - | - |
| 1777300780 | 21.11° C | 73% | 1020.7 hPa | 0 mm | - | - | - |
| 1777300180 | 20.56° C | 75% | 1020.7 hPa | 0 mm | - | - | - |
| 1777299580 | 19.44° C | 77% | 1020.6 hPa | 0 mm | - | - | - |
| 1777298980 | 18.89° C | 78% | 1020.7 hPa | 0 mm | - | - | - |
| 1777298380 | 18.89° C | 80% | 1020.8 hPa | 0 mm | - | - | - |
| 1777297780 | 17.78° C | 81% | 1020.7 hPa | 0 mm | - | - | - |
| 1777297180 | 17.78° C | 81% | 1020.8 hPa | 0 mm | - | - | - |
| 1777296580 | 17.22° C | 84% | 1020.9 hPa | 0 mm | - | - | - |
| 1777295980 | 16.67° C | 84% | 1021 hPa | 0 mm | - | - | - |
| 1777295380 | 16.11° C | 88% | 1020.8 hPa | 0 mm | - | - | - |
| 1777294780 | 15.56° C | 91% | 1020.8 hPa | 0 mm | - | - | - |
| 1777294180 | 14.44° C | 93% | 1020.7 hPa | 0 mm | - | - | - |
| 1777293580 | 13.89° C | 93% | 1020.6 hPa | 0 mm | - | - | - |
| 1777292980 | 13.89° C | 93% | 1020.7 hPa | 0 mm | - | - | - |
| 1777292380 | 13.33° C | 93% | 1020.7 hPa | 0 mm | - | - | - |
| 1777291780 | 13.33° C | 94% | 1020.7 hPa | 0 mm | - | - | - |
| 1777291180 | 12.78° C | 94% | 1020.5 hPa | 0 mm | - | - | - |
| 1777290580 | 12.78° C | 94% | 1020.4 hPa | 0 mm | - | - | - |
| 1777289981 | 12.78° C | 94% | 1020.3 hPa | 0 mm | - | - | - |
| 1777289381 | 12.78° C | 93% | 1020.2 hPa | 0 mm | - | - | - |
| 1777288780 | 12.78° C | 93% | 1020 hPa | 0 mm | - | - | - |
| 1777288180 | 12.78° C | 93% | 1019.9 hPa | 0 mm | - | - | - |
| 1777287581 | 12.78° C | 93% | 1019.8 hPa | 0 mm | - | - | - |
* Rain latest hour (hover to see other rain measurements)
** Current wind speed in m/s (hover to see current wind gust speed)